sensor_id;sensor_type;location;lat;lon;timestamp;temperature;humidity
67529;DHT22;54366;51.980;5.856;2022-09-24T00:03:39;15.50;81.30
67529;DHT22;54366;51.980;5.856;2022-09-24T00:06:07;15.50;81.30
67529;DHT22;54366;51.980;5.856;2022-09-24T00:08:34;15.50;81.30
67529;DHT22;54366;51.980;5.856;2022-09-24T00:11:04;15.50;81.30
67529;DHT22;54366;51.980;5.856;2022-09-24T00:13:32;15.50;81.40
67529;DHT22;54366;51.980;5.856;2022-09-24T00:16:05;15.40;81.60
67529;DHT22;54366;51.980;5.856;2022-09-24T00:18:33;15.40;81.60
67529;DHT22;54366;51.980;5.856;2022-09-24T00:20:59;15.40;81.80
67529;DHT22;54366;51.980;5.856;2022-09-24T00:23:26;15.40;81.90
67529;DHT22;54366;51.980;5.856;2022-09-24T00:25:52;15.40;81.70
67529;DHT22;54366;51.980;5.856;2022-09-24T00:28:37;15.40;81.80
67529;DHT22;54366;51.980;5.856;2022-09-24T00:31:05;15.40;82.00
67529;DHT22;54366;51.980;5.856;2022-09-24T00:33:33;15.40;81.80
67529;DHT22;54366;51.980;5.856;2022-09-24T00:36:04;15.40;81.80
67529;DHT22;54366;51.980;5.856;2022-09-24T00:38:31;15.40;82.20
67529;DHT22;54366;51.980;5.856;2022-09-24T00:40:58;15.40;82.20
67529;DHT22;54366;51.980;5.856;2022-09-24T00:43:33;15.40;82.30
67529;DHT22;54366;51.980;5.856;2022-09-24T00:49:01;15.40;82.50
67529;DHT22;54366;51.980;5.856;2022-09-24T00:51:31;15.40;82.20
67529;DHT22;54366;51.980;5.856;2022-09-24T00:54:00;15.40;82.50
67529;DHT22;54366;51.980;5.856;2022-09-24T00:56:31;15.40;82.30
67529;DHT22;54366;51.980;5.856;2022-09-24T00:59:00;15.40;82.20
67529;DHT22;54366;51.980;5.856;2022-09-24T01:01:27;15.40;82.30
67529;DHT22;54366;51.980;5.856;2022-09-24T01:03:56;15.40;82.60
67529;DHT22;54366;51.980;5.856;2022-09-24T01:06:24;15.40;82.30
67529;DHT22;54366;51.980;5.856;2022-09-24T01:08:51;15.40;82.30
67529;DHT22;54366;51.980;5.856;2022-09-24T01:28:00;15.30;82.50
67529;DHT22;54366;51.980;5.856;2022-09-24T01:30:33;15.20;82.50
67529;DHT22;54366;51.980;5.856;2022-09-24T01:33:08;15.30;82.50
67529;DHT22;54366;51.980;5.856;2022-09-24T01:35:42;15.30;82.40
67529;DHT22;54366;51.980;5.856;2022-09-24T01:38:18;15.30;82.50
67529;DHT22;54366;51.980;5.856;2022-09-24T01:40:47;15.30;82.60
67529;DHT22;54366;51.980;5.856;2022-09-24T01:43:16;15.20;82.60
67529;DHT22;54366;51.980;5.856;2022-09-24T01:45:42;15.20;82.60
67529;DHT22;54366;51.980;5.856;2022-09-24T01:48:09;15.20;82.80
67529;DHT22;54366;51.980;5.856;2022-09-24T01:50:49;15.20;82.60
67529;DHT22;54366;51.980;5.856;2022-09-24T01:53:26;15.20;82.60
67529;DHT22;54366;51.980;5.856;2022-09-24T01:56:01;15.20;82.40
67529;DHT22;54366;51.980;5.856;2022-09-24T01:58:37;15.20;82.40
67529;DHT22;54366;51.980;5.856;2022-09-24T02:01:16;15.20;82.30
67529;DHT22;54366;51.980;5.856;2022-09-24T02:04:14;15.20;82.50
67529;DHT22;54366;51.980;5.856;2022-09-24T02:06:58;15.20;82.60
67529;DHT22;54366;51.980;5.856;2022-09-24T02:09:37;15.10;82.40
67529;DHT22;54366;51.980;5.856;2022-09-24T02:12:11;15.10;82.20
67529;DHT22;54366;51.980;5.856;2022-09-24T02:14:44;15.20;82.10
67529;DHT22;54366;51.980;5.856;2022-09-24T02:17:13;15.10;82.20
67529;DHT22;54366;51.980;5.856;2022-09-24T02:19:41;15.10;82.20
67529;DHT22;54366;51.980;5.856;2022-09-24T02:22:09;15.10;82.20
67529;DHT22;54366;51.980;5.856;2022-09-24T02:27:08;15.10;82.30
67529;DHT22;54366;51.980;5.856;2022-09-24T02:29:35;15.10;82.40
67529;DHT22;54366;51.980;5.856;2022-09-24T02:32:03;15.10;82.60
67529;DHT22;54366;51.980;5.856;2022-09-24T02:34:33;15.10;82.50
67529;DHT22;54366;51.980;5.856;2022-09-24T02:37:07;15.10;82.50
67529;DHT22;54366;51.980;5.856;2022-09-24T02:39:34;15.10;82.60
67529;DHT22;54366;51.980;5.856;2022-09-24T02:42:02;15.10;82.70
67529;DHT22;54366;51.980;5.856;2022-09-24T02:44:31;15.10;82.60
67529;DHT22;54366;51.980;5.856;2022-09-24T02:46:57;15.10;82.80
67529;DHT22;54366;51.980;5.856;2022-09-24T02:49:24;15.10;82.70
67529;DHT22;54366;51.980;5.856;2022-09-24T02:51:50;15.10;82.70
67529;DHT22;54366;51.980;5.856;2022-09-24T02:54:16;15.10;82.60
67529;DHT22;54366;51.980;5.856;2022-09-24T02:56:42;15.10;82.60
67529;DHT22;54366;51.980;5.856;2022-09-24T02:59:08;15.10;82.70
67529;DHT22;54366;51.980;5.856;2022-09-24T03:01:35;15.10;82.70
67529;DHT22;54366;51.980;5.856;2022-09-24T03:04:01;15.10;82.50
67529;DHT22;54366;51.980;5.856;2022-09-24T03:06:28;15.10;82.50
67529;DHT22;54366;51.980;5.856;2022-09-24T03:08:55;15.10;82.60
67529;DHT22;54366;51.980;5.856;2022-09-24T03:11:22;15.10;82.70
67529;DHT22;54366;51.980;5.856;2022-09-24T03:13:49;15.10;82.50
67529;DHT22;54366;51.980;5.856;2022-09-24T03:16:17;15.10;82.40
67529;DHT22;54366;51.980;5.856;2022-09-24T03:18:44;15.10;82.70
67529;DHT22;54366;51.980;5.856;2022-09-24T03:21:12;15.10;82.60
67529;DHT22;54366;51.980;5.856;2022-09-24T03:23:39;15.10;82.60
67529;DHT22;54366;51.980;5.856;2022-09-24T03:26:07;15.10;83.20
67529;DHT22;54366;51.980;5.856;2022-09-24T03:28:33;15.10;82.60
67529;DHT22;54366;51.980;5.856;2022-09-24T03:31:00;15.10;82.50
67529;DHT22;54366;51.980;5.856;2022-09-24T03:36:14;15.10;83.00
67529;DHT22;54366;51.980;5.856;2022-09-24T03:38:42;15.10;82.60
67529;DHT22;54366;51.980;5.856;2022-09-24T03:41:10;15.10;82.60
67529;DHT22;54366;51.980;5.856;2022-09-24T03:43:37;15.10;82.50
67529;DHT22;54366;51.980;5.856;2022-09-24T03:46:05;15.10;82.40
67529;DHT22;54366;51.980;5.856;2022-09-24T03:48:35;15.10;82.60
67529;DHT22;54366;51.980;5.856;2022-09-24T03:51:13;15.10;82.50
67529;DHT22;54366;51.980;5.856;2022-09-24T03:53:39;15.10;82.70
67529;DHT22;54366;51.980;5.856;2022-09-24T03:56:07;15.10;82.60
67529;DHT22;54366;51.980;5.856;2022-09-24T03:58:35;15.10;82.70
67529;DHT22;54366;51.980;5.856;2022-09-24T04:01:06;15.10;82.80
67529;DHT22;54366;51.980;5.856;2022-09-24T04:03:33;15.10;82.70
67529;DHT22;54366;51.980;5.856;2022-09-24T04:06:01;15.10;82.70
67529;DHT22;54366;51.980;5.856;2022-09-24T04:08:27;15.10;82.90
67529;DHT22;54366;51.980;5.856;2022-09-24T04:10:53;15.10;82.80
67529;DHT22;54366;51.980;5.856;2022-09-24T04:13:20;15.10;82.90
67529;DHT22;54366;51.980;5.856;2022-09-24T04:15:46;15.10;83.50
67529;DHT22;54366;51.980;5.856;2022-09-24T04:18:15;15.10;82.90
67529;DHT22;54366;51.980;5.856;2022-09-24T04:20:41;15.10;82.90
67529;DHT22;54366;51.980;5.856;2022-09-24T04:23:09;15.10;83.10
67529;DHT22;54366;51.980;5.856;2022-09-24T04:25:35;15.10;82.80
67529;DHT22;54366;51.980;5.856;2022-09-24T04:28:04;15.10;82.90
67529;DHT22;54366;51.980;5.856;2022-09-24T04:30:33;15.10;82.90
67529;DHT22;54366;51.980;5.856;2022-09-24T04:33:00;15.10;82.90
67529;DHT22;54366;51.980;5.856;2022-09-24T04:35:30;15.10;82.90
67529;DHT22;54366;51.980;5.856;2022-09-24T04:37:57;15.10;82.60
67529;DHT22;54366;51.980;5.856;2022-09-24T04:40:24;15.10;82.40
67529;DHT22;54366;51.980;5.856;2022-09-24T04:42:51;15.10;82.50
67529;DHT22;54366;51.980;5.856;2022-09-24T04:45:17;15.00;82.40
67529;DHT22;54366;51.980;5.856;2022-09-24T04:47:48;15.10;82.50
67529;DHT22;54366;51.980;5.856;2022-09-24T04:50:19;15.00;82.60
67529;DHT22;54366;51.980;5.856;2022-09-24T04:52:45;15.00;82.70
67529;DHT22;54366;51.980;5.856;2022-09-24T04:55:12;15.00;82.70
67529;DHT22;54366;51.980;5.856;2022-09-24T04:57:39;15.00;82.60
67529;DHT22;54366;51.980;5.856;2022-09-24T05:00:10;15.00;82.60
67529;DHT22;54366;51.980;5.856;2022-09-24T05:02:37;15.00;82.70
67529;DHT22;54366;51.980;5.856;2022-09-24T05:05:04;15.00;82.80
67529;DHT22;54366;51.980;5.856;2022-09-24T05:07:30;15.00;82.60
67529;DHT22;54366;51.980;5.856;2022-09-24T05:09:56;15.00;82.50
67529;DHT22;54366;51.980;5.856;2022-09-24T05:12:23;15.00;82.50
67529;DHT22;54366;51.980;5.856;2022-09-24T05:14:49;15.00;82.40
67529;DHT22;54366;51.980;5.856;2022-09-24T05:17:15;15.00;82.50
67529;DHT22;54366;51.980;5.856;2022-09-24T05:19:41;15.00;82.40
67529;DHT22;54366;51.980;5.856;2022-09-24T05:22:08;15.00;82.40
67529;DHT22;54366;51.980;5.856;2022-09-24T05:24:34;15.00;82.50
67529;DHT22;54366;51.980;5.856;2022-09-24T05:27:00;15.00;82.60
67529;DHT22;54366;51.980;5.856;2022-09-24T05:29:39;15.00;82.60
67529;DHT22;54366;51.980;5.856;2022-09-24T05:32:08;15.00;82.60
67529;DHT22;54366;51.980;5.856;2022-09-24T05:34:34;15.00;82.70
67529;DHT22;54366;51.980;5.856;2022-09-24T05:37:01;14.90;82.60
67529;DHT22;54366;51.980;5.856;2022-09-24T05:39:28;15.00;82.60
67529;DHT22;54366;51.980;5.856;2022-09-24T05:41:55;15.00;82.60
67529;DHT22;54366;51.980;5.856;2022-09-24T05:44:22;15.00;82.60
67529;DHT22;54366;51.980;5.856;2022-09-24T05:46:49;15.00;82.60
67529;DHT22;54366;51.980;5.856;2022-09-24T05:49:16;15.00;82.70
67529;DHT22;54366;51.980;5.856;2022-09-24T05:51:43;15.00;82.70
67529;DHT22;54366;51.980;5.856;2022-09-24T05:54:09;15.00;82.80
67529;DHT22;54366;51.980;5.856;2022-09-24T05:56:38;15.00;82.80
67529;DHT22;54366;51.980;5.856;2022-09-24T05:59:04;15.00;82.80
67529;DHT22;54366;51.980;5.856;2022-09-24T06:01:32;15.00;82.70
67529;DHT22;54366;51.980;5.856;2022-09-24T06:03:58;14.90;82.60
67529;DHT22;54366;51.980;5.856;2022-09-24T06:06:25;15.00;82.70
67529;DHT22;54366;51.980;5.856;2022-09-24T06:08:52;14.90;82.70
67529;DHT22;54366;51.980;5.856;2022-09-24T06:11:19;15.00;82.60
67529;DHT22;54366;51.980;5.856;2022-09-24T06:13:50;14.90;82.50
67529;DHT22;54366;51.980;5.856;2022-09-24T06:16:16;15.00;82.50
67529;DHT22;54366;51.980;5.856;2022-09-24T06:18:43;15.00;82.60
67529;DHT22;54366;51.980;5.856;2022-09-24T06:21:11;15.00;82.60
67529;DHT22;54366;51.980;5.856;2022-09-24T06:23:38;14.90;82.50
67529;DHT22;54366;51.980;5.856;2022-09-24T06:26:06;15.00;82.50
67529;DHT22;54366;51.980;5.856;2022-09-24T06:28:36;15.00;82.60
67529;DHT22;54366;51.980;5.856;2022-09-24T06:31:03;15.00;83.20
67529;DHT22;54366;51.980;5.856;2022-09-24T06:33:29;15.00;82.60
67529;DHT22;54366;51.980;5.856;2022-09-24T06:35:59;15.00;82.50
67529;DHT22;54366;51.980;5.856;2022-09-24T06:38:26;15.00;82.60
67529;DHT22;54366;51.980;5.856;2022-09-24T06:40:58;14.90;82.50
67529;DHT22;54366;51.980;5.856;2022-09-24T06:43:25;15.00;82.70
67529;DHT22;54366;51.980;5.856;2022-09-24T06:45:54;15.00;82.80
67529;DHT22;54366;51.980;5.856;2022-09-24T06:48:20;15.00;82.70
67529;DHT22;54366;51.980;5.856;2022-09-24T06:50:47;15.00;82.70
67529;DHT22;54366;51.980;5.856;2022-09-24T06:53:14;15.00;82.60
67529;DHT22;54366;51.980;5.856;2022-09-24T06:55:41;15.00;82.60
67529;DHT22;54366;51.980;5.856;2022-09-24T06:58:13;15.00;82.70
67529;DHT22;54366;51.980;5.856;2022-09-24T07:00:40;15.00;83.20
67529;DHT22;54366;51.980;5.856;2022-09-24T07:03:15;15.00;83.00
67529;DHT22;54366;51.980;5.856;2022-09-24T07:05:41;15.00;82.90
67529;DHT22;54366;51.980;5.856;2022-09-24T07:08:07;15.00;82.90
67529;DHT22;54366;51.980;5.856;2022-09-24T07:10:34;15.00;83.00
67529;DHT22;54366;51.980;5.856;2022-09-24T07:13:00;15.00;83.10
67529;DHT22;54366;51.980;5.856;2022-09-24T07:15:26;15.00;83.20
67529;DHT22;54366;51.980;5.856;2022-09-24T07:17:55;15.00;83.10
67529;DHT22;54366;51.980;5.856;2022-09-24T07:20:23;15.00;83.30
67529;DHT22;54366;51.980;5.856;2022-09-24T07:22:49;15.00;83.40
67529;DHT22;54366;51.980;5.856;2022-09-24T07:25:15;15.00;83.30
67529;DHT22;54366;51.980;5.856;2022-09-24T07:27:42;15.00;83.40
67529;DHT22;54366;51.980;5.856;2022-09-24T07:30:09;15.00;83.40
67529;DHT22;54366;51.980;5.856;2022-09-24T07:32:35;15.00;83.50
67529;DHT22;54366;51.980;5.856;2022-09-24T07:35:01;15.00;83.40
67529;DHT22;54366;51.980;5.856;2022-09-24T07:37:27;15.00;83.50
67529;DHT22;54366;51.980;5.856;2022-09-24T07:39:58;15.00;83.50
67529;DHT22;54366;51.980;5.856;2022-09-24T07:42:24;15.00;83.30
67529;DHT22;54366;51.980;5.856;2022-09-24T07:44:51;15.00;83.50
67529;DHT22;54366;51.980;5.856;2022-09-24T07:47:17;15.00;83.40
67529;DHT22;54366;51.980;5.856;2022-09-24T07:49:43;15.00;83.50
67529;DHT22;54366;51.980;5.856;2022-09-24T07:52:10;15.10;83.80
67529;DHT22;54366;51.980;5.856;2022-09-24T07:54:37;15.10;83.80
67529;DHT22;54366;51.980;5.856;2022-09-24T07:57:08;15.00;83.80
67529;DHT22;54366;51.980;5.856;2022-09-24T07:59:34;15.10;83.80
67529;DHT22;54366;51.980;5.856;2022-09-24T08:02:00;15.10;84.00
67529;DHT22;54366;51.980;5.856;2022-09-24T08:04:26;15.10;83.90
67529;DHT22;54366;51.980;5.856;2022-09-24T08:06:53;15.10;83.90
67529;DHT22;54366;51.980;5.856;2022-09-24T08:09:19;15.10;83.90
67529;DHT22;54366;51.980;5.856;2022-09-24T08:11:47;15.10;83.70
67529;DHT22;54366;51.980;5.856;2022-09-24T08:14:14;15.20;83.70
67529;DHT22;54366;51.980;5.856;2022-09-24T08:16:41;15.20;83.70
67529;DHT22;54366;51.980;5.856;2022-09-24T08:19:08;15.10;83.60
67529;DHT22;54366;51.980;5.856;2022-09-24T08:21:39;15.20;83.60
67529;DHT22;54366;51.980;5.856;2022-09-24T08:24:05;15.20;83.70
67529;DHT22;54366;51.980;5.856;2022-09-24T08:26:31;15.20;83.70
67529;DHT22;54366;51.980;5.856;2022-09-24T08:28:57;15.20;83.90
67529;DHT22;54366;51.980;5.856;2022-09-24T08:31:23;15.20;83.90
67529;DHT22;54366;51.980;5.856;2022-09-24T08:33:49;15.20;83.90
67529;DHT22;54366;51.980;5.856;2022-09-24T08:36:16;15.30;83.70
67529;DHT22;54366;51.980;5.856;2022-09-24T08:38:43;15.30;83.80
67529;DHT22;54366;51.980;5.856;2022-09-24T08:44:22;15.30;83.60
67529;DHT22;54366;51.980;5.856;2022-09-24T08:47:38;15.30;83.70
67529;DHT22;54366;51.980;5.856;2022-09-24T08:50:11;15.20;83.90
67529;DHT22;54366;51.980;5.856;2022-09-24T08:55:19;15.30;83.90
67529;DHT22;54366;51.980;5.856;2022-09-24T08:58:22;15.30;84.60
67529;DHT22;54366;51.980;5.856;2022-09-24T09:06:42;15.30;83.80
67529;DHT22;54366;51.980;5.856;2022-09-24T09:09:21;15.30;83.80
67529;DHT22;54366;51.980;5.856;2022-09-24T09:11:58;15.30;83.60
67529;DHT22;54366;51.980;5.856;2022-09-24T09:17:01;15.30;83.70
67529;DHT22;54366;51.980;5.856;2022-09-24T09:19:32;15.30;83.70
67529;DHT22;54366;51.980;5.856;2022-09-24T09:22:04;15.30;83.60
67529;DHT22;54366;51.980;5.856;2022-09-24T09:24:52;15.30;83.60
67529;DHT22;54366;51.980;5.856;2022-09-24T09:27:19;15.30;83.80
67529;DHT22;54366;51.980;5.856;2022-09-24T09:29:53;15.30;83.90
67529;DHT22;54366;51.980;5.856;2022-09-24T09:32:43;15.30;83.90
67529;DHT22;54366;51.980;5.856;2022-09-24T09:38:08;15.30;83.80
67529;DHT22;54366;51.980;5.856;2022-09-24T09:40:40;15.40;83.90
67529;DHT22;54366;51.980;5.856;2022-09-24T09:43:10;15.40;83.80
67529;DHT22;54366;51.980;5.856;2022-09-24T09:51:17;15.40;84.30
67529;DHT22;54366;51.980;5.856;2022-09-24T09:53:58;15.40;84.20
67529;DHT22;54366;51.980;5.856;2022-09-24T09:56:30;15.40;84.20
67529;DHT22;54366;51.980;5.856;2022-09-24T09:59:13;15.40;84.00
67529;DHT22;54366;51.980;5.856;2022-09-24T10:01:44;15.40;84.20
67529;DHT22;54366;51.980;5.856;2022-09-24T10:07:13;15.40;84.20
67529;DHT22;54366;51.980;5.856;2022-09-24T10:09:40;15.40;84.20
67529;DHT22;54366;51.980;5.856;2022-09-24T10:12:18;15.40;84.10
67529;DHT22;54366;51.980;5.856;2022-09-24T10:15:00;15.40;84.10
67529;DHT22;54366;51.980;5.856;2022-09-24T10:17:36;15.40;84.20
67529;DHT22;54366;51.980;5.856;2022-09-24T10:20:08;15.50;84.30
67529;DHT22;54366;51.980;5.856;2022-09-24T10:22:48;15.50;84.10
67529;DHT22;54366;51.980;5.856;2022-09-24T10:25:18;15.40;83.90
67529;DHT22;54366;51.980;5.856;2022-09-24T10:27:46;15.50;84.00
67529;DHT22;54366;51.980;5.856;2022-09-24T10:30:15;15.50;84.10
67529;DHT22;54366;51.980;5.856;2022-09-24T10:33:02;15.50;84.10
67529;DHT22;54366;51.980;5.856;2022-09-24T10:35:34;15.50;83.90
67529;DHT22;54366;51.980;5.856;2022-09-24T10:38:18;15.50;84.10
67529;DHT22;54366;51.980;5.856;2022-09-24T10:40:45;15.50;84.20
67529;DHT22;54366;51.980;5.856;2022-09-24T10:43:17;15.50;84.20
67529;DHT22;54366;51.980;5.856;2022-09-24T10:48:26;15.50;84.00
67529;DHT22;54366;51.980;5.856;2022-09-24T10:51:09;15.50;84.10
67529;DHT22;54366;51.980;5.856;2022-09-24T10:56:19;15.50;84.40
67529;DHT22;54366;51.980;5.856;2022-09-24T11:01:34;15.60;84.30
67529;DHT22;54366;51.980;5.856;2022-09-24T11:04:25;15.60;84.30
67529;DHT22;54366;51.980;5.856;2022-09-24T11:09:56;15.60;84.20
67529;DHT22;54366;51.980;5.856;2022-09-24T11:23:03;15.70;84.40
67529;DHT22;54366;51.980;5.856;2022-09-24T11:25:42;15.60;84.30
67529;DHT22;54366;51.980;5.856;2022-09-24T11:34:36;15.70;84.30
67529;DHT22;54366;51.980;5.856;2022-09-24T11:54:09;15.60;84.00
67529;DHT22;54366;51.980;5.856;2022-09-24T11:56:43;15.70;84.10
67529;DHT22;54366;51.980;5.856;2022-09-24T12:01:51;15.70;84.00
67529;DHT22;54366;51.980;5.856;2022-09-24T12:04:49;15.70;83.80
67529;DHT22;54366;51.980;5.856;2022-09-24T12:07:26;15.70;83.70
67529;DHT22;54366;51.980;5.856;2022-09-24T12:12:45;15.80;83.50
67529;DHT22;54366;51.980;5.856;2022-09-24T12:15:18;15.80;83.20
67529;DHT22;54366;51.980;5.856;2022-09-24T12:17:51;15.80;83.90
67529;DHT22;54366;51.980;5.856;2022-09-24T12:20:22;15.80;83.30
67529;DHT22;54366;51.980;5.856;2022-09-24T12:22:55;15.90;83.30
67529;DHT22;54366;51.980;5.856;2022-09-24T12:25:31;15.90;83.30
67529;DHT22;54366;51.980;5.856;2022-09-24T12:27:59;15.90;83.30
67529;DHT22;54366;51.980;5.856;2022-09-24T12:30:39;15.90;83.30
67529;DHT22;54366;51.980;5.856;2022-09-24T12:39:01;16.00;83.20
67529;DHT22;54366;51.980;5.856;2022-09-24T12:41:35;15.90;83.30
67529;DHT22;54366;51.980;5.856;2022-09-24T12:46:51;15.90;83.40
67529;DHT22;54366;51.980;5.856;2022-09-24T12:49:31;15.90;83.60
67529;DHT22;54366;51.980;5.856;2022-09-24T12:52:14;15.80;83.70
67529;DHT22;54366;51.980;5.856;2022-09-24T12:54:42;15.80;84.00
67529;DHT22;54366;51.980;5.856;2022-09-24T12:57:16;15.90;84.00
67529;DHT22;54366;51.980;5.856;2022-09-24T13:04:51;15.80;84.00
67529;DHT22;54366;51.980;5.856;2022-09-24T13:10:24;15.90;84.00
67529;DHT22;54366;51.980;5.856;2022-09-24T13:12:50;15.90;84.00
67529;DHT22;54366;51.980;5.856;2022-09-24T13:20:38;15.90;83.90
67529;DHT22;54366;51.980;5.856;2022-09-24T13:23:12;15.90;83.90
67529;DHT22;54366;51.980;5.856;2022-09-24T13:25:40;15.90;83.90
67529;DHT22;54366;51.980;5.856;2022-09-24T13:28:22;15.90;83.90
67529;DHT22;54366;51.980;5.856;2022-09-24T13:30:59;15.90;83.90
67529;DHT22;54366;51.980;5.856;2022-09-24T13:33:38;15.90;84.00
67529;DHT22;54366;51.980;5.856;2022-09-24T13:36:16;15.90;83.90
67529;DHT22;54366;51.980;5.856;2022-09-24T13:41:49;15.90;84.00
67529;DHT22;54366;51.980;5.856;2022-09-24T13:44:29;15.90;84.00
67529;DHT22;54366;51.980;5.856;2022-09-24T13:47:00;15.90;83.90
67529;DHT22;54366;51.980;5.856;2022-09-24T13:49:29;15.90;83.90
67529;DHT22;54366;51.980;5.856;2022-09-24T13:52:08;16.00;83.70
67529;DHT22;54366;51.980;5.856;2022-09-24T13:54:46;15.90;83.50
67529;DHT22;54366;51.980;5.856;2022-09-24T13:59:48;15.90;83.90
67529;DHT22;54366;51.980;5.856;2022-09-24T14:02:25;15.90;83.80
67529;DHT22;54366;51.980;5.856;2022-09-24T14:04:59;15.80;83.30
67529;DHT22;54366;51.980;5.856;2022-09-24T14:07:26;15.80;83.30
67529;DHT22;54366;51.980;5.856;2022-09-24T14:10:09;15.80;83.50
67529;DHT22;54366;51.980;5.856;2022-09-24T14:12:38;15.80;83.70
67529;DHT22;54366;51.980;5.856;2022-09-24T14:15:16;15.80;83.80
67529;DHT22;54366;51.980;5.856;2022-09-24T14:17:57;15.80;83.70
67529;DHT22;54366;51.980;5.856;2022-09-24T14:20:27;15.80;83.60
67529;DHT22;54366;51.980;5.856;2022-09-24T14:22:55;15.80;83.70
67529;DHT22;54366;51.980;5.856;2022-09-24T14:25:29;15.80;83.70
67529;DHT22;54366;51.980;5.856;2022-09-24T14:27:58;15.80;83.80
67529;DHT22;54366;51.980;5.856;2022-09-24T14:30:28;15.80;83.90
67529;DHT22;54366;51.980;5.856;2022-09-24T14:32:57;15.80;83.70
67529;DHT22;54366;51.980;5.856;2022-09-24T14:35:29;15.80;83.60
67529;DHT22;54366;51.980;5.856;2022-09-24T14:38:05;15.80;83.80
67529;DHT22;54366;51.980;5.856;2022-09-24T14:40:46;15.80;83.70
67529;DHT22;54366;51.980;5.856;2022-09-24T14:46:28;15.70;83.40
67529;DHT22;54366;51.980;5.856;2022-09-24T14:51:55;15.60;83.80
67529;DHT22;54366;51.980;5.856;2022-09-24T14:57:34;15.60;84.10
67529;DHT22;54366;51.980;5.856;2022-09-24T15:00:00;15.60;84.10
67529;DHT22;54366;51.980;5.856;2022-09-24T15:02:34;15.60;84.10
67529;DHT22;54366;51.980;5.856;2022-09-24T15:05:04;15.60;84.10
67529;DHT22;54366;51.980;5.856;2022-09-24T15:07:33;15.60;84.80
67529;DHT22;54366;51.980;5.856;2022-09-24T15:10:01;15.60;84.40
67529;DHT22;54366;51.980;5.856;2022-09-24T15:12:30;15.60;84.20
67529;DHT22;54366;51.980;5.856;2022-09-24T15:17:36;15.60;84.30
67529;DHT22;54366;51.980;5.856;2022-09-24T15:20:03;15.60;84.30
67529;DHT22;54366;51.980;5.856;2022-09-24T15:22:30;15.60;84.50
67529;DHT22;54366;51.980;5.856;2022-09-24T15:24:57;15.60;84.40
67529;DHT22;54366;51.980;5.856;2022-09-24T15:27:26;15.70;84.40
67529;DHT22;54366;51.980;5.856;2022-09-24T15:29:55;15.70;84.60
67529;DHT22;54366;51.980;5.856;2022-09-24T15:32:29;15.70;84.60
67529;DHT22;54366;51.980;5.856;2022-09-24T15:35:03;15.70;84.40
67529;DHT22;54366;51.980;5.856;2022-09-24T15:37:33;15.70;84.30
67529;DHT22;54366;51.980;5.856;2022-09-24T15:40:26;15.70;84.40
67529;DHT22;54366;51.980;5.856;2022-09-24T15:42:55;15.70;84.10
67529;DHT22;54366;51.980;5.856;2022-09-24T15:45:23;15.70;83.90
67529;DHT22;54366;51.980;5.856;2022-09-24T15:47:50;15.70;83.80
67529;DHT22;54366;51.980;5.856;2022-09-24T15:50:18;15.70;83.80
67529;DHT22;54366;51.980;5.856;2022-09-24T15:52:57;15.70;83.80
67529;DHT22;54366;51.980;5.856;2022-09-24T15:55:24;15.70;83.90
67529;DHT22;54366;51.980;5.856;2022-09-24T15:57:51;15.70;83.90
67529;DHT22;54366;51.980;5.856;2022-09-24T16:00:20;15.70;83.80
67529;DHT22;54366;51.980;5.856;2022-09-24T16:02:49;15.70;83.90
67529;DHT22;54366;51.980;5.856;2022-09-24T16:05:16;15.70;83.50
67529;DHT22;54366;51.980;5.856;2022-09-24T16:07:43;15.70;83.50
67529;DHT22;54366;51.980;5.856;2022-09-24T16:10:11;15.70;83.60
67529;DHT22;54366;51.980;5.856;2022-09-24T16:12:40;15.70;84.20
67529;DHT22;54366;51.980;5.856;2022-09-24T16:15:10;15.70;83.40
67529;DHT22;54366;51.980;5.856;2022-09-24T16:17:37;15.70;83.50
67529;DHT22;54366;51.980;5.856;2022-09-24T16:20:04;15.70;83.40
67529;DHT22;54366;51.980;5.856;2022-09-24T16:22:30;15.60;83.30
67529;DHT22;54366;51.980;5.856;2022-09-24T16:24:56;15.60;83.40
67529;DHT22;54366;51.980;5.856;2022-09-24T16:27:22;15.60;83.50
67529;DHT22;54366;51.980;5.856;2022-09-24T16:29:49;15.60;83.40
67529;DHT22;54366;51.980;5.856;2022-09-24T16:32:15;15.50;83.40
67529;DHT22;54366;51.980;5.856;2022-09-24T16:34:41;15.50;83.30
67529;DHT22;54366;51.980;5.856;2022-09-24T16:37:07;15.50;83.40
67529;DHT22;54366;51.980;5.856;2022-09-24T16:39:34;15.50;83.60
67529;DHT22;54366;51.980;5.856;2022-09-24T16:42:00;15.40;83.40
67529;DHT22;54366;51.980;5.856;2022-09-24T16:44:26;15.50;83.50
67529;DHT22;54366;51.980;5.856;2022-09-24T16:46:53;15.50;83.60
67529;DHT22;54366;51.980;5.856;2022-09-24T16:49:21;15.40;83.60
67529;DHT22;54366;51.980;5.856;2022-09-24T16:51:48;15.40;83.50
67529;DHT22;54366;51.980;5.856;2022-09-24T16:54:14;15.40;83.60
67529;DHT22;54366;51.980;5.856;2022-09-24T16:56:40;15.40;83.80
67529;DHT22;54366;51.980;5.856;2022-09-24T16:59:09;15.40;83.80
67529;DHT22;54366;51.980;5.856;2022-09-24T17:01:36;15.30;83.90
67529;DHT22;54366;51.980;5.856;2022-09-24T17:04:05;15.30;83.90
67529;DHT22;54366;51.980;5.856;2022-09-24T17:06:31;15.30;84.00
67529;DHT22;54366;51.980;5.856;2022-09-24T17:08:59;15.30;83.90
67529;DHT22;54366;51.980;5.856;2022-09-24T17:11:44;15.20;84.00
67529;DHT22;54366;51.980;5.856;2022-09-24T17:14:16;15.30;83.90
67529;DHT22;54366;51.980;5.856;2022-09-24T17:16:42;15.30;84.00
67529;DHT22;54366;51.980;5.856;2022-09-24T17:19:10;15.20;83.80
67529;DHT22;54366;51.980;5.856;2022-09-24T17:21:39;15.20;84.00
67529;DHT22;54366;51.980;5.856;2022-09-24T17:24:06;15.20;83.80
67529;DHT22;54366;51.980;5.856;2022-09-24T17:26:32;15.20;83.80
67529;DHT22;54366;51.980;5.856;2022-09-24T17:28:59;15.10;83.50
67529;DHT22;54366;51.980;5.856;2022-09-24T17:31:25;15.10;83.50
67529;DHT22;54366;51.980;5.856;2022-09-24T17:36:22;15.10;83.60
67529;DHT22;54366;51.980;5.856;2022-09-24T17:38:49;15.00;83.40
67529;DHT22;54366;51.980;5.856;2022-09-24T17:41:17;14.90;83.50
67529;DHT22;54366;51.980;5.856;2022-09-24T17:43:43;14.90;83.80
67529;DHT22;54366;51.980;5.856;2022-09-24T17:46:12;14.90;83.80
67529;DHT22;54366;51.980;5.856;2022-09-24T17:48:41;14.90;83.90
67529;DHT22;54366;51.980;5.856;2022-09-24T17:51:12;14.90;83.80
67529;DHT22;54366;51.980;5.856;2022-09-24T17:53:38;14.90;84.00
67529;DHT22;54366;51.980;5.856;2022-09-24T17:56:06;14.90;83.80
67529;DHT22;54366;51.980;5.856;2022-09-24T17:58:37;14.80;83.70
67529;DHT22;54366;51.980;5.856;2022-09-24T18:03:38;14.80;83.80
67529;DHT22;54366;51.980;5.856;2022-09-24T18:06:07;14.80;83.60
67529;DHT22;54366;51.980;5.856;2022-09-24T18:08:52;14.80;83.80
67529;DHT22;54366;51.980;5.856;2022-09-24T18:11:28;14.80;83.70
67529;DHT22;54366;51.980;5.856;2022-09-24T18:13:58;14.80;83.70
67529;DHT22;54366;51.980;5.856;2022-09-24T18:16:27;14.80;83.60